sensor_id;sensor_type;location;lat;lon;timestamp;P1;durP1;ratioP1;P2;durP2;ratioP2
13609;SDS011;6876;50.788;4.940;2023-05-16T00:00:07;1999.90;;;999.90;;
13609;SDS011;6876;50.788;4.940;2023-05-16T00:02:55;1999.90;;;999.90;;
13609;SDS011;6876;50.788;4.940;2023-05-16T00:05:43;1999.90;;;999.90;;
13609;SDS011;6876;50.788;4.940;2023-05-16T00:08:31;1999.90;;;999.90;;
13609;SDS011;6876;50.788;4.940;2023-05-16T00:11:19;1999.90;;;999.90;;
13609;SDS011;6876;50.788;4.940;2023-05-16T00:14:07;1999.90;;;999.90;;
13609;SDS011;6876;50.788;4.940;2023-05-16T00:16:56;1999.90;;;999.90;;
13609;SDS011;6876;50.788;4.940;2023-05-16T00:19:44;1999.90;;;999.90;;
13609;SDS011;6876;50.788;4.940;2023-05-16T00:22:33;1999.90;;;999.90;;
13609;SDS011;6876;50.788;4.940;2023-05-16T00:25:20;1999.90;;;999.90;;
13609;SDS011;6876;50.788;4.940;2023-05-16T00:28:10;1999.90;;;999.90;;
13609;SDS011;6876;50.788;4.940;2023-05-16T00:30:57;1999.90;;;999.90;;
13609;SDS011;6876;50.788;4.940;2023-05-16T00:33:44;1999.90;;;999.90;;
13609;SDS011;6876;50.788;4.940;2023-05-16T00:36:31;1999.90;;;999.90;;
13609;SDS011;6876;50.788;4.940;2023-05-16T00:39:20;1999.90;;;999.90;;
13609;SDS011;6876;50.788;4.940;2023-05-16T00:42:07;1999.90;;;999.90;;
13609;SDS011;6876;50.788;4.940;2023-05-16T00:44:56;1999.90;;;999.90;;
13609;SDS011;6876;50.788;4.940;2023-05-16T00:47:43;1999.90;;;999.90;;
13609;SDS011;6876;50.788;4.940;2023-05-16T00:50:31;1999.90;;;999.90;;
13609;SDS011;6876;50.788;4.940;2023-05-16T00:53:19;1999.90;;;999.90;;
13609;SDS011;6876;50.788;4.940;2023-05-16T00:56:06;1999.90;;;999.90;;
13609;SDS011;6876;50.788;4.940;2023-05-16T00:58:54;1999.90;;;999.90;;
13609;SDS011;6876;50.788;4.940;2023-05-16T01:01:43;1999.90;;;999.90;;
13609;SDS011;6876;50.788;4.940;2023-05-16T01:04:32;1999.90;;;999.90;;
13609;SDS011;6876;50.788;4.940;2023-05-16T01:07:20;1999.90;;;999.90;;
13609;SDS011;6876;50.788;4.940;2023-05-16T01:10:07;1999.90;;;999.90;;
13609;SDS011;6876;50.788;4.940;2023-05-16T01:12:56;1999.90;;;999.90;;
13609;SDS011;6876;50.788;4.940;2023-05-16T01:15:58;1999.90;;;999.90;;
13609;SDS011;6876;50.788;4.940;2023-05-16T01:18:54;1999.90;;;999.90;;
13609;SDS011;6876;50.788;4.940;2023-05-16T01:21:48;1999.90;;;999.90;;
13609;SDS011;6876;50.788;4.940;2023-05-16T01:24:50;1999.90;;;999.90;;
13609;SDS011;6876;50.788;4.940;2023-05-16T01:27:46;1999.90;;;999.90;;
13609;SDS011;6876;50.788;4.940;2023-05-16T01:30:37;1999.90;;;999.90;;
13609;SDS011;6876;50.788;4.940;2023-05-16T01:33:26;1999.90;;;999.90;;
13609;SDS011;6876;50.788;4.940;2023-05-16T01:36:16;1999.90;;;999.90;;
13609;SDS011;6876;50.788;4.940;2023-05-16T01:39:10;1999.90;;;999.90;;
13609;SDS011;6876;50.788;4.940;2023-05-16T01:42:04;1999.90;;;999.90;;
13609;SDS011;6876;50.788;4.940;2023-05-16T01:44:55;1999.90;;;999.90;;
13609;SDS011;6876;50.788;4.940;2023-05-16T01:47:49;1999.90;;;999.90;;
13609;SDS011;6876;50.788;4.940;2023-05-16T01:50:45;1999.90;;;999.90;;
13609;SDS011;6876;50.788;4.940;2023-05-16T01:53:36;1999.90;;;999.90;;
13609;SDS011;6876;50.788;4.940;2023-05-16T01:56:24;1999.90;;;999.90;;
13609;SDS011;6876;50.788;4.940;2023-05-16T01:59:13;1999.90;;;999.90;;
13609;SDS011;6876;50.788;4.940;2023-05-16T02:02:03;1999.90;;;999.90;;
13609;SDS011;6876;50.788;4.940;2023-05-16T02:04:50;1999.90;;;999.90;;
13609;SDS011;6876;50.788;4.940;2023-05-16T02:07:38;1999.90;;;999.90;;
13609;SDS011;6876;50.788;4.940;2023-05-16T02:10:25;1999.90;;;999.90;;
13609;SDS011;6876;50.788;4.940;2023-05-16T02:13:13;1999.90;;;999.90;;
13609;SDS011;6876;50.788;4.940;2023-05-16T02:16:00;1999.90;;;999.90;;
13609;SDS011;6876;50.788;4.940;2023-05-16T02:18:50;1999.90;;;999.90;;
13609;SDS011;6876;50.788;4.940;2023-05-16T02:21:37;1999.90;;;999.90;;
13609;SDS011;6876;50.788;4.940;2023-05-16T02:24:24;1999.90;;;999.90;;
13609;SDS011;6876;50.788;4.940;2023-05-16T02:27:12;1999.90;;;999.90;;
13609;SDS011;6876;50.788;4.940;2023-05-16T02:29:59;1999.90;;;999.90;;
13609;SDS011;6876;50.788;4.940;2023-05-16T02:32:46;1999.90;;;999.90;;
13609;SDS011;6876;50.788;4.940;2023-05-16T02:35:35;1999.90;;;999.90;;
13609;SDS011;6876;50.788;4.940;2023-05-16T02:38:23;1999.90;;;999.90;;
13609;SDS011;6876;50.788;4.940;2023-05-16T02:41:10;1999.90;;;999.90;;
13609;SDS011;6876;50.788;4.940;2023-05-16T02:43:57;1999.90;;;999.90;;
13609;SDS011;6876;50.788;4.940;2023-05-16T02:46:45;1999.90;;;999.90;;
13609;SDS011;6876;50.788;4.940;2023-05-16T02:49:32;1999.90;;;999.90;;
13609;SDS011;6876;50.788;4.940;2023-05-16T02:52:21;1999.90;;;999.90;;
13609;SDS011;6876;50.788;4.940;2023-05-16T02:55:08;1999.90;;;999.90;;
13609;SDS011;6876;50.788;4.940;2023-05-16T02:57:56;1999.90;;;999.90;;
13609;SDS011;6876;50.788;4.940;2023-05-16T03:00:44;1999.90;;;999.90;;
13609;SDS011;6876;50.788;4.940;2023-05-16T03:03:31;1999.90;;;999.90;;
13609;SDS011;6876;50.788;4.940;2023-05-16T03:06:19;1999.90;;;999.90;;
13609;SDS011;6876;50.788;4.940;2023-05-16T03:09:08;1999.90;;;999.90;;
13609;SDS011;6876;50.788;4.940;2023-05-16T03:11:55;1999.90;;;999.90;;
13609;SDS011;6876;50.788;4.940;2023-05-16T03:14:43;1999.90;;;999.90;;
13609;SDS011;6876;50.788;4.940;2023-05-16T03:17:31;1999.90;;;999.90;;
13609;SDS011;6876;50.788;4.940;2023-05-16T03:20:18;1999.90;;;999.90;;
13609;SDS011;6876;50.788;4.940;2023-05-16T03:23:06;1999.90;;;999.90;;
13609;SDS011;6876;50.788;4.940;2023-05-16T03:25:54;1999.90;;;999.90;;
13609;SDS011;6876;50.788;4.940;2023-05-16T03:28:42;1999.90;;;999.90;;
13609;SDS011;6876;50.788;4.940;2023-05-16T03:31:29;1999.90;;;999.90;;
13609;SDS011;6876;50.788;4.940;2023-05-16T03:34:18;1999.90;;;999.90;;
13609;SDS011;6876;50.788;4.940;2023-05-16T03:37:05;1999.90;;;999.90;;
13609;SDS011;6876;50.788;4.940;2023-05-16T03:39:55;1999.90;;;999.90;;
13609;SDS011;6876;50.788;4.940;2023-05-16T03:42:44;1999.90;;;999.90;;
13609;SDS011;6876;50.788;4.940;2023-05-16T03:45:31;1999.90;;;999.90;;
13609;SDS011;6876;50.788;4.940;2023-05-16T03:48:18;1999.90;;;999.90;;
13609;SDS011;6876;50.788;4.940;2023-05-16T03:51:06;1999.90;;;999.90;;
13609;SDS011;6876;50.788;4.940;2023-05-16T03:53:53;1999.90;;;999.90;;
13609;SDS011;6876;50.788;4.940;2023-05-16T03:56:41;1999.90;;;999.90;;
13609;SDS011;6876;50.788;4.940;2023-05-16T03:59:30;1999.90;;;999.90;;
13609;SDS011;6876;50.788;4.940;2023-05-16T04:02:19;1999.90;;;999.90;;
13609;SDS011;6876;50.788;4.940;2023-05-16T04:05:06;1999.90;;;999.90;;
13609;SDS011;6876;50.788;4.940;2023-05-16T04:07:55;1999.90;;;999.90;;
13609;SDS011;6876;50.788;4.940;2023-05-16T04:10:42;1999.90;;;999.90;;
13609;SDS011;6876;50.788;4.940;2023-05-16T04:13:29;1999.90;;;999.90;;
13609;SDS011;6876;50.788;4.940;2023-05-16T04:16:18;1999.90;;;999.90;;
13609;SDS011;6876;50.788;4.940;2023-05-16T04:19:05;1999.90;;;999.90;;
13609;SDS011;6876;50.788;4.940;2023-05-16T04:21:53;1999.90;;;999.90;;
13609;SDS011;6876;50.788;4.940;2023-05-16T04:24:40;1999.90;;;999.90;;
13609;SDS011;6876;50.788;4.940;2023-05-16T04:27:27;1999.90;;;999.90;;
13609;SDS011;6876;50.788;4.940;2023-05-16T04:30:16;1999.90;;;999.90;;
13609;SDS011;6876;50.788;4.940;2023-05-16T04:33:04;1999.90;;;999.90;;
13609;SDS011;6876;50.788;4.940;2023-05-16T04:35:52;1999.90;;;999.90;;
13609;SDS011;6876;50.788;4.940;2023-05-16T04:38:39;1999.90;;;999.90;;
13609;SDS011;6876;50.788;4.940;2023-05-16T04:41:27;1999.90;;;999.90;;
13609;SDS011;6876;50.788;4.940;2023-05-16T04:44:14;1999.90;;;999.90;;
13609;SDS011;6876;50.788;4.940;2023-05-16T04:47:02;1999.90;;;999.90;;
13609;SDS011;6876;50.788;4.940;2023-05-16T04:49:51;1999.90;;;999.90;;
13609;SDS011;6876;50.788;4.940;2023-05-16T04:52:38;1999.90;;;999.90;;
13609;SDS011;6876;50.788;4.940;2023-05-16T04:55:26;1999.90;;;999.90;;
13609;SDS011;6876;50.788;4.940;2023-05-16T04:58:13;1999.90;;;999.90;;
13609;SDS011;6876;50.788;4.940;2023-05-16T05:01:00;1999.90;;;999.90;;
13609;SDS011;6876;50.788;4.940;2023-05-16T05:03:48;1999.90;;;999.90;;
13609;SDS011;6876;50.788;4.940;2023-05-16T05:06:37;1999.90;;;999.90;;
13609;SDS011;6876;50.788;4.940;2023-05-16T05:09:25;1999.90;;;999.90;;
13609;SDS011;6876;50.788;4.940;2023-05-16T05:12:13;1999.90;;;999.90;;
13609;SDS011;6876;50.788;4.940;2023-05-16T05:15:00;1999.90;;;999.90;;
13609;SDS011;6876;50.788;4.940;2023-05-16T05:17:48;1999.90;;;999.90;;
13609;SDS011;6876;50.788;4.940;2023-05-16T05:20:35;1999.90;;;999.90;;
13609;SDS011;6876;50.788;4.940;2023-05-16T05:23:24;1999.90;;;999.90;;
13609;SDS011;6876;50.788;4.940;2023-05-16T05:26:11;1999.90;;;999.90;;
13609;SDS011;6876;50.788;4.940;2023-05-16T05:28:58;1999.90;;;999.90;;
13609;SDS011;6876;50.788;4.940;2023-05-16T05:31:49;1999.90;;;999.90;;
13609;SDS011;6876;50.788;4.940;2023-05-16T05:34:36;1999.90;;;999.90;;
13609;SDS011;6876;50.788;4.940;2023-05-16T05:37:24;1999.90;;;999.90;;
13609;SDS011;6876;50.788;4.940;2023-05-16T05:40:14;1999.90;;;999.90;;
13609;SDS011;6876;50.788;4.940;2023-05-16T05:43:01;1999.90;;;999.90;;
13609;SDS011;6876;50.788;4.940;2023-05-16T05:45:49;1999.90;;;999.90;;
13609;SDS011;6876;50.788;4.940;2023-05-16T05:48:36;1999.90;;;999.90;;
13609;SDS011;6876;50.788;4.940;2023-05-16T05:51:24;1999.90;;;999.90;;
13609;SDS011;6876;50.788;4.940;2023-05-16T05:54:11;1999.90;;;999.90;;
13609;SDS011;6876;50.788;4.940;2023-05-16T05:57:00;1999.90;;;999.90;;
13609;SDS011;6876;50.788;4.940;2023-05-16T05:59:47;1999.90;;;999.90;;
13609;SDS011;6876;50.788;4.940;2023-05-16T06:02:35;1999.90;;;999.90;;
13609;SDS011;6876;50.788;4.940;2023-05-16T06:05:22;1999.90;;;999.90;;
13609;SDS011;6876;50.788;4.940;2023-05-16T06:08:10;1999.90;;;999.90;;
13609;SDS011;6876;50.788;4.940;2023-05-16T06:10:58;1999.90;;;999.90;;
13609;SDS011;6876;50.788;4.940;2023-05-16T06:13:47;1999.90;;;999.90;;
13609;SDS011;6876;50.788;4.940;2023-05-16T06:16:34;1999.90;;;999.90;;
13609;SDS011;6876;50.788;4.940;2023-05-16T06:19:23;1999.90;;;999.90;;
13609;SDS011;6876;50.788;4.940;2023-05-16T06:22:11;1999.90;;;999.90;;
13609;SDS011;6876;50.788;4.940;2023-05-16T06:24:58;1999.90;;;999.90;;
13609;SDS011;6876;50.788;4.940;2023-05-16T06:27:46;1999.90;;;999.90;;
13609;SDS011;6876;50.788;4.940;2023-05-16T06:30:35;1999.90;;;999.90;;
13609;SDS011;6876;50.788;4.940;2023-05-16T06:33:22;1259.13;;;744.65;;
13609;SDS011;6876;50.788;4.940;2023-05-16T06:36:09;1999.90;;;999.90;;
13609;SDS011;6876;50.788;4.940;2023-05-16T06:38:57;1999.90;;;999.90;;
13609;SDS011;6876;50.788;4.940;2023-05-16T06:41:44;1999.90;;;999.90;;
13609;SDS011;6876;50.788;4.940;2023-05-16T06:44:31;1999.90;;;999.90;;
13609;SDS011;6876;50.788;4.940;2023-05-16T06:47:20;1999.90;;;999.90;;
13609;SDS011;6876;50.788;4.940;2023-05-16T06:50:08;1999.90;;;999.90;;
13609;SDS011;6876;50.788;4.940;2023-05-16T06:52:55;1999.90;;;999.90;;
13609;SDS011;6876;50.788;4.940;2023-05-16T06:55:43;1999.90;;;999.90;;
13609;SDS011;6876;50.788;4.940;2023-05-16T06:58:30;1999.90;;;999.90;;
13609;SDS011;6876;50.788;4.940;2023-05-16T07:01:18;1999.90;;;999.90;;
13609;SDS011;6876;50.788;4.940;2023-05-16T07:04:06;1999.90;;;999.90;;
13609;SDS011;6876;50.788;4.940;2023-05-16T07:06:54;1999.90;;;999.90;;
13609;SDS011;6876;50.788;4.940;2023-05-16T07:09:41;1999.90;;;999.90;;
13609;SDS011;6876;50.788;4.940;2023-05-16T07:12:29;1999.90;;;999.90;;
13609;SDS011;6876;50.788;4.940;2023-05-16T07:15:16;1999.90;;;999.90;;
13609;SDS011;6876;50.788;4.940;2023-05-16T07:18:03;462.85;;;438.05;;
13609;SDS011;6876;50.788;4.940;2023-05-16T07:20:52;1999.90;;;999.90;;
13609;SDS011;6876;50.788;4.940;2023-05-16T07:23:39;1999.90;;;999.90;;
13609;SDS011;6876;50.788;4.940;2023-05-16T07:26:27;1999.90;;;999.90;;
13609;SDS011;6876;50.788;4.940;2023-05-16T07:29:14;1999.90;;;999.90;;
13609;SDS011;6876;50.788;4.940;2023-05-16T07:32:01;1999.90;;;999.90;;
13609;SDS011;6876;50.788;4.940;2023-05-16T07:34:49;1999.90;;;999.90;;
13609;SDS011;6876;50.788;4.940;2023-05-16T07:37:38;1999.90;;;999.90;;
13609;SDS011;6876;50.788;4.940;2023-05-16T07:40:26;1999.90;;;999.90;;
13609;SDS011;6876;50.788;4.940;2023-05-16T07:43:14;1999.90;;;999.90;;
13609;SDS011;6876;50.788;4.940;2023-05-16T07:46:01;1999.90;;;999.90;;
13609;SDS011;6876;50.788;4.940;2023-05-16T07:48:49;1999.90;;;999.90;;
13609;SDS011;6876;50.788;4.940;2023-05-16T07:51:36;1999.90;;;999.90;;
13609;SDS011;6876;50.788;4.940;2023-05-16T07:54:25;1999.90;;;999.90;;
13609;SDS011;6876;50.788;4.940;2023-05-16T07:57:12;1999.90;;;999.90;;
13609;SDS011;6876;50.788;4.940;2023-05-16T08:00:00;1999.90;;;999.90;;
13609;SDS011;6876;50.788;4.940;2023-05-16T08:02:48;1999.90;;;999.90;;
13609;SDS011;6876;50.788;4.940;2023-05-16T08:05:37;1999.90;;;999.90;;
13609;SDS011;6876;50.788;4.940;2023-05-16T08:08:25;1999.90;;;999.90;;
13609;SDS011;6876;50.788;4.940;2023-05-16T08:11:13;1999.90;;;999.90;;
13609;SDS011;6876;50.788;4.940;2023-05-16T08:14:01;1216.75;;;704.85;;
13609;SDS011;6876;50.788;4.940;2023-05-16T08:16:48;1999.90;;;999.90;;
13609;SDS011;6876;50.788;4.940;2023-05-16T08:19:35;1999.90;;;999.90;;
13609;SDS011;6876;50.788;4.940;2023-05-16T08:22:23;1999.90;;;999.90;;
13609;SDS011;6876;50.788;4.940;2023-05-16T08:25:11;1999.90;;;999.90;;
13609;SDS011;6876;50.788;4.940;2023-05-16T08:27:59;1999.90;;;999.90;;
13609;SDS011;6876;50.788;4.940;2023-05-16T08:30:47;1999.90;;;999.90;;
13609;SDS011;6876;50.788;4.940;2023-05-16T08:33:34;1999.90;;;999.90;;
13609;SDS011;6876;50.788;4.940;2023-05-16T08:36:21;1999.90;;;999.90;;
13609;SDS011;6876;50.788;4.940;2023-05-16T08:39:10;1999.90;;;999.90;;
13609;SDS011;6876;50.788;4.940;2023-05-16T08:41:57;1999.90;;;999.90;;
13609;SDS011;6876;50.788;4.940;2023-05-16T08:44:47;1999.90;;;999.90;;
13609;SDS011;6876;50.788;4.940;2023-05-16T08:47:34;1999.90;;;999.90;;
13609;SDS011;6876;50.788;4.940;2023-05-16T08:50:25;1999.90;;;999.90;;
13609;SDS011;6876;50.788;4.940;2023-05-16T08:53:18;1999.90;;;999.90;;
13609;SDS011;6876;50.788;4.940;2023-05-16T08:56:08;1999.90;;;999.90;;
13609;SDS011;6876;50.788;4.940;2023-05-16T08:58:58;538.42;;;506.65;;
13609;SDS011;6876;50.788;4.940;2023-05-16T09:01:47;388.45;;;368.45;;
13609;SDS011;6876;50.788;4.940;2023-05-16T09:07:23;382.17;;;362.40;;
13609;SDS011;6876;50.788;4.940;2023-05-16T09:10:10;515.33;;;485.65;;
13609;SDS011;6876;50.788;4.940;2023-05-16T09:12:59;469.80;;;444.10;;
13609;SDS011;6876;50.788;4.940;2023-05-16T09:15:49;396.70;;;376.23;;
13609;SDS011;6876;50.788;4.940;2023-05-16T09:18:56;390.58;;;370.45;;
13609;SDS011;6876;50.788;4.940;2023-05-16T09:21:44;482.42;;;455.83;;
13609;SDS011;6876;50.788;4.940;2023-05-16T09:24:31;291.17;;;276.98;;
13609;SDS011;6876;50.788;4.940;2023-05-16T09:27:19;362.17;;;344.20;;
13609;SDS011;6876;50.788;4.940;2023-05-16T09:30:07;455.23;;;431.05;;
13609;SDS011;6876;50.788;4.940;2023-05-16T09:32:56;406.10;;;385.00;;
13609;SDS011;6876;50.788;4.940;2023-05-16T09:35:45;1999.90;;;999.90;;
13609;SDS011;6876;50.788;4.940;2023-05-16T09:38:32;1999.90;;;999.90;;
13609;SDS011;6876;50.788;4.940;2023-05-16T09:41:20;336.63;;;319.65;;
13609;SDS011;6876;50.788;4.940;2023-05-16T09:44:08;485.27;;;457.20;;
13609;SDS011;6876;50.788;4.940;2023-05-16T09:46:55;1999.90;;;999.90;;
13609;SDS011;6876;50.788;4.940;2023-05-16T09:49:42;1999.90;;;999.90;;
13609;SDS011;6876;50.788;4.940;2023-05-16T09:52:32;1999.90;;;999.90;;
13609;SDS011;6876;50.788;4.940;2023-05-16T09:55:19;1999.90;;;999.90;;
13609;SDS011;6876;50.788;4.940;2023-05-16T09:58:08;1999.90;;;999.90;;
13609;SDS011;6876;50.788;4.940;2023-05-16T10:00:56;1999.90;;;999.90;;
13609;SDS011;6876;50.788;4.940;2023-05-16T10:03:43;1149.03;;;641.67;;
13609;SDS011;6876;50.788;4.940;2023-05-16T10:06:31;581.33;;;544.95;;
13609;SDS011;6876;50.788;4.940;2023-05-16T10:09:20;314.95;;;298.67;;
13609;SDS011;6876;50.788;4.940;2023-05-16T10:12:08;397.98;;;377.60;;
13609;SDS011;6876;50.788;4.940;2023-05-16T10:14:58;373.70;;;354.38;;
13609;SDS011;6876;50.788;4.940;2023-05-16T10:17:47;470.48;;;443.42;;
13609;SDS011;6876;50.788;4.940;2023-05-16T10:20:37;443.92;;;419.02;;
13609;SDS011;6876;50.788;4.940;2023-05-16T10:23:26;390.60;;;370.15;;
13609;SDS011;6876;50.788;4.940;2023-05-16T10:26:16;418.48;;;394.98;;
13609;SDS011;6876;50.788;4.940;2023-05-16T10:29:03;413.90;;;391.85;;
13609;SDS011;6876;50.788;4.940;2023-05-16T10:31:51;348.05;;;330.63;;
13609;SDS011;6876;50.788;4.940;2023-05-16T10:34:39;1999.90;;;999.90;;
13609;SDS011;6876;50.788;4.940;2023-05-16T10:37:28;1999.90;;;999.90;;
13609;SDS011;6876;50.788;4.940;2023-05-16T10:40:16;417.50;;;395.20;;
13609;SDS011;6876;50.788;4.940;2023-05-16T10:43:05;359.17;;;341.02;;
13609;SDS011;6876;50.788;4.940;2023-05-16T10:45:54;475.65;;;448.90;;
13609;SDS011;6876;50.788;4.940;2023-05-16T10:48:42;380.50;;;359.77;;
13609;SDS011;6876;50.788;4.940;2023-05-16T10:51:33;368.58;;;349.83;;
13609;SDS011;6876;50.788;4.940;2023-05-16T10:54:24;418.92;;;396.58;;
13609;SDS011;6876;50.788;4.940;2023-05-16T10:57:23;612.80;;;571.28;;
13609;SDS011;6876;50.788;4.940;2023-05-16T11:00:13;440.90;;;416.77;;
13609;SDS011;6876;50.788;4.940;2023-05-16T11:03:18;344.48;;;327.52;;
13609;SDS011;6876;50.788;4.940;2023-05-16T11:06:12;316.08;;;300.52;;
13609;SDS011;6876;50.788;4.940;2023-05-16T11:09:06;409.20;;;386.83;;
13609;SDS011;6876;50.788;4.940;2023-05-16T11:12:08;422.52;;;399.50;;
13609;SDS011;6876;50.788;4.940;2023-05-16T11:14:55;298.00;;;283.42;;
13609;SDS011;6876;50.788;4.940;2023-05-16T11:17:45;331.95;;;315.70;;
13609;SDS011;6876;50.788;4.940;2023-05-16T11:20:34;370.65;;;351.58;;
13609;SDS011;6876;50.788;4.940;2023-05-16T11:23:23;373.23;;;353.10;;
13609;SDS011;6876;50.788;4.940;2023-05-16T11:26:11;308.13;;;293.05;;
13609;SDS011;6876;50.788;4.940;2023-05-16T11:28:59;1999.90;;;999.90;;
13609;SDS011;6876;50.788;4.940;2023-05-16T11:31:48;1999.90;;;999.90;;
13609;SDS011;6876;50.788;4.940;2023-05-16T11:34:37;1999.90;;;999.90;;
13609;SDS011;6876;50.788;4.940;2023-05-16T11:37:25;1999.90;;;999.90;;
13609;SDS011;6876;50.788;4.940;2023-05-16T11:40:12;1999.90;;;999.90;;
13609;SDS011;6876;50.788;4.940;2023-05-16T11:43:01;1999.90;;;999.90;;
13609;SDS011;6876;50.788;4.940;2023-05-16T11:45:52;1999.90;;;999.90;;
13609;SDS011;6876;50.788;4.940;2023-05-16T11:48:40;1999.90;;;999.90;;
13609;SDS011;6876;50.788;4.940;2023-05-16T11:51:32;1999.90;;;999.90;;
13609;SDS011;6876;50.788;4.940;2023-05-16T11:54:20;1999.90;;;999.90;;
13609;SDS011;6876;50.788;4.940;2023-05-16T11:57:07;1999.90;;;999.90;;
13609;SDS011;6876;50.788;4.940;2023-05-16T11:59:55;1999.90;;;999.90;;
13609;SDS011;6876;50.788;4.940;2023-05-16T12:02:51;1999.90;;;999.90;;
13609;SDS011;6876;50.788;4.940;2023-05-16T12:05:39;1999.90;;;999.90;;
13609;SDS011;6876;50.788;4.940;2023-05-16T12:08:37;1999.90;;;999.90;;
13609;SDS011;6876;50.788;4.940;2023-05-16T12:11:25;1999.90;;;999.90;;
13609;SDS011;6876;50.788;4.940;2023-05-16T12:14:12;1999.90;;;999.90;;
13609;SDS011;6876;50.788;4.940;2023-05-16T12:17:00;1999.90;;;999.90;;
13609;SDS011;6876;50.788;4.940;2023-05-16T12:19:49;1999.90;;;999.90;;
13609;SDS011;6876;50.788;4.940;2023-05-16T12:22:37;1999.90;;;999.90;;
13609;SDS011;6876;50.788;4.940;2023-05-16T12:25:26;1999.90;;;999.90;;
13609;SDS011;6876;50.788;4.940;2023-05-16T12:28:16;1999.90;;;999.90;;
13609;SDS011;6876;50.788;4.940;2023-05-16T12:31:05;1999.90;;;999.90;;
13609;SDS011;6876;50.788;4.940;2023-05-16T12:34:04;1999.90;;;999.90;;
13609;SDS011;6876;50.788;4.940;2023-05-16T12:37:00;1999.90;;;999.90;;
13609;SDS011;6876;50.788;4.940;2023-05-16T12:39:49;1999.90;;;999.90;;
13609;SDS011;6876;50.788;4.940;2023-05-16T12:42:37;1999.90;;;999.90;;
13609;SDS011;6876;50.788;4.940;2023-05-16T12:45:25;1999.90;;;999.90;;
13609;SDS011;6876;50.788;4.940;2023-05-16T12:48:13;1999.90;;;999.90;;
13609;SDS011;6876;50.788;4.940;2023-05-16T12:51:10;1999.90;;;999.90;;
13609;SDS011;6876;50.788;4.940;2023-05-16T12:54:05;1999.90;;;999.90;;
13609;SDS011;6876;50.788;4.940;2023-05-16T12:56:54;1999.90;;;999.90;;
13609;SDS011;6876;50.788;4.940;2023-05-16T12:59:43;1999.90;;;999.90;;
13609;SDS011;6876;50.788;4.940;2023-05-16T13:02:30;1999.90;;;999.90;;
13609;SDS011;6876;50.788;4.940;2023-05-16T13:05:18;1999.90;;;999.90;;
13609;SDS011;6876;50.788;4.940;2023-05-16T13:08:07;1999.90;;;999.90;;
13609;SDS011;6876;50.788;4.940;2023-05-16T13:10:55;1999.90;;;999.90;;
13609;SDS011;6876;50.788;4.940;2023-05-16T13:13:42;1999.90;;;999.90;;
13609;SDS011;6876;50.788;4.940;2023-05-16T13:16:31;1999.90;;;999.90;;
13609;SDS011;6876;50.788;4.940;2023-05-16T13:19:18;1999.90;;;999.90;;
13609;SDS011;6876;50.788;4.940;2023-05-16T13:22:07;1999.90;;;999.90;;
13609;SDS011;6876;50.788;4.940;2023-05-16T13:24:54;1999.90;;;999.90;;
13609;SDS011;6876;50.788;4.940;2023-05-16T13:27:42;1999.90;;;999.90;;
13609;SDS011;6876;50.788;4.940;2023-05-16T13:30:29;1999.90;;;999.90;;
13609;SDS011;6876;50.788;4.940;2023-05-16T13:33:18;1999.90;;;999.90;;
13609;SDS011;6876;50.788;4.940;2023-05-16T13:36:05;1999.90;;;999.90;;
13609;SDS011;6876;50.788;4.940;2023-05-16T13:38:53;1999.90;;;999.90;;
13609;SDS011;6876;50.788;4.940;2023-05-16T13:41:40;1999.90;;;999.90;;
13609;SDS011;6876;50.788;4.940;2023-05-16T13:44:28;1999.90;;;999.90;;
13609;SDS011;6876;50.788;4.940;2023-05-16T13:47:15;1999.90;;;999.90;;
13609;SDS011;6876;50.788;4.940;2023-05-16T13:50:04;1999.90;;;999.90;;
13609;SDS011;6876;50.788;4.940;2023-05-16T13:52:54;1999.90;;;999.90;;
13609;SDS011;6876;50.788;4.940;2023-05-16T13:55:41;1999.90;;;999.90;;
13609;SDS011;6876;50.788;4.940;2023-05-16T13:58:29;1999.90;;;999.90;;
13609;SDS011;6876;50.788;4.940;2023-05-16T14:01:16;1999.90;;;999.90;;
13609;SDS011;6876;50.788;4.940;2023-05-16T14:04:04;1999.90;;;999.90;;
13609;SDS011;6876;50.788;4.940;2023-05-16T14:06:52;1999.90;;;999.90;;
13609;SDS011;6876;50.788;4.940;2023-05-16T14:09:40;1999.90;;;999.90;;
13609;SDS011;6876;50.788;4.940;2023-05-16T14:12:29;1999.90;;;999.90;;
13609;SDS011;6876;50.788;4.940;2023-05-16T14:15:16;1999.90;;;999.90;;
13609;SDS011;6876;50.788;4.940;2023-05-16T14:18:04;1999.90;;;999.90;;
13609;SDS011;6876;50.788;4.940;2023-05-16T14:20:51;1999.90;;;999.90;;
13609;SDS011;6876;50.788;4.940;2023-05-16T14:23:42;1999.90;;;999.90;;
13609;SDS011;6876;50.788;4.940;2023-05-16T14:26:29;1999.90;;;999.90;;
13609;SDS011;6876;50.788;4.940;2023-05-16T14:29:17;1999.90;;;999.90;;
13609;SDS011;6876;50.788;4.940;2023-05-16T14:32:04;1999.90;;;999.90;;
13609;SDS011;6876;50.788;4.940;2023-05-16T14:34:52;1999.90;;;999.90;;
13609;SDS011;6876;50.788;4.940;2023-05-16T14:37:40;1999.90;;;999.90;;
13609;SDS011;6876;50.788;4.940;2023-05-16T14:40:28;1999.90;;;999.90;;
13609;SDS011;6876;50.788;4.940;2023-05-16T14:43:16;1999.90;;;999.90;;
13609;SDS011;6876;50.788;4.940;2023-05-16T14:46:03;1999.90;;;999.90;;
13609;SDS011;6876;50.788;4.940;2023-05-16T14:48:50;1999.90;;;999.90;;
13609;SDS011;6876;50.788;4.940;2023-05-16T14:51:38;1999.90;;;999.90;;
13609;SDS011;6876;50.788;4.940;2023-05-16T14:54:25;1999.90;;;999.90;;
13609;SDS011;6876;50.788;4.940;2023-05-16T14:57:14;1999.90;;;999.90;;
13609;SDS011;6876;50.788;4.940;2023-05-16T15:00:01;1999.90;;;999.90;;
13609;SDS011;6876;50.788;4.940;2023-05-16T15:02:49;1999.90;;;999.90;;
13609;SDS011;6876;50.788;4.940;2023-05-16T15:05:37;1999.90;;;999.90;;
13609;SDS011;6876;50.788;4.940;2023-05-16T15:08:24;1999.90;;;999.90;;
13609;SDS011;6876;50.788;4.940;2023-05-16T15:11:12;1999.90;;;999.90;;
13609;SDS011;6876;50.788;4.940;2023-05-16T15:14:00;1999.90;;;999.90;;
13609;SDS011;6876;50.788;4.940;2023-05-16T15:16:47;1999.90;;;999.90;;
13609;SDS011;6876;50.788;4.940;2023-05-16T15:19:35;1999.90;;;999.90;;
13609;SDS011;6876;50.788;4.940;2023-05-16T15:22:22;1999.90;;;999.90;;
13609;SDS011;6876;50.788;4.940;2023-05-16T15:25:10;1999.90;;;999.90;;
13609;SDS011;6876;50.788;4.940;2023-05-16T15:27:57;1999.90;;;999.90;;
13609;SDS011;6876;50.788;4.940;2023-05-16T15:30:46;1999.90;;;999.90;;
13609;SDS011;6876;50.788;4.940;2023-05-16T15:33:33;1999.90;;;999.90;;
13609;SDS011;6876;50.788;4.940;2023-05-16T15:36:21;1999.90;;;999.90;;
13609;SDS011;6876;50.788;4.940;2023-05-16T15:39:08;1999.90;;;999.90;;
13609;SDS011;6876;50.788;4.940;2023-05-16T15:41:56;1999.90;;;999.90;;
13609;SDS011;6876;50.788;4.940;2023-05-16T15:44:43;1999.90;;;999.90;;
13609;SDS011;6876;50.788;4.940;2023-05-16T15:47:32;1999.90;;;999.90;;
13609;SDS011;6876;50.788;4.940;2023-05-16T15:50:19;1999.90;;;999.90;;
13609;SDS011;6876;50.788;4.940;2023-05-16T15:53:06;1999.90;;;999.90;;
13609;SDS011;6876;50.788;4.940;2023-05-16T15:55:54;1999.90;;;999.90;;
13609;SDS011;6876;50.788;4.940;2023-05-16T15:58:42;1999.90;;;999.90;;
13609;SDS011;6876;50.788;4.940;2023-05-16T16:01:31;1999.90;;;999.90;;